GDO weather

Guasdalito Airport
Apure, Venezuela

Public forecast

Using degrees Celsius for public forecast. Weather courtesy of forecast.io.

METAR (pilot weather report)

Report is more than 6 hours old.

Retrieved 2018/12/06 00:00 UTC (10 months ago):

SVGD 060000Z /////KT 9999 FEW017 27/20 Q1010

TAF (pilot weather forecast)

Closest forecast is San Antonio Del Tachira Airport, 104.2 nm (193.0 km) WNW. Retrieved 2019/09/17 18:09 UTC (2 hours ago):

TAF TAF SVSA 171600Z 1718/1818 36005KT 9999 BKN020 TX32/19Z TN23/09Z BECMG 1718/1722 25003KT 9999 BKN020